Wetterdaten: Woche 05.10.09 - 11.10.09 (KW41)
Datum Zeit Temp. A. Feuchte A. Luftdruck Regen Wind Richtung Taupunkt Windchill Windben
05.10.2009 00:00 9,8 C 85 % 1015,8 hPa 0,0 l/m 0,0 km/h N 7,5 C 9,8 C 0,0 km/h
05.10.2009 01:00 9,0 C 88 % 1016,1 hPa 0,0 l/m 0,0 km/h N 7,1 C 9,0 C 1,2 km/h
05.10.2009 02:00 10,2 C 83 % 1016,4 hPa 0,0 l/m 0,0 km/h N 7,5 C 10,2 C 1,2 km/h
05.10.2009 03:00 12,1 C 74 % 1016,8 hPa 0,0 l/m 0,1 km/h N 7,7 C 12,1 C 2,8 km/h
05.10.2009 04:00 14,1 C 65 % 1017,0 hPa 0,0 l/m 1,1 km/h W-SW 7,6 C 14,1 C 8,4 km/h
05.10.2009 05:00 14,4 C 61 % 1017,3 hPa 0,0 l/m 2,1 km/h SW 7,0 C 14,4 C 14,1 km/h
05.10.2009 06:00 12,8 C 68 % 1017,9 hPa 0,0 l/m 0,3 km/h N 7,0 C 12,8 C 4,0 km/h
05.10.2009 07:00 11,5 C 74 % 1018,3 hPa 0,0 l/m 0,1 km/h N 7,0 C 11,5 C 2,4 km/h
05.10.2009 08:00 13,8 C 65 % 1019,0 hPa 0,0 l/m 0,8 km/h SW 7,3 C 13,8 C 4,8 km/h
05.10.2009 09:00 15,4 C 60 % 1019,6 hPa 0,0 l/m 1,5 km/h S-SO 7,6 C 15,4 C 8,4 km/h
05.10.2009 10:00 16,7 C 57 % 1019,8 hPa 0,0 l/m 3,3 km/h NW 8,1 C 16,7 C 8,8 km/h
05.10.2009 11:00 17,9 C 55 % 1019,5 hPa 0,0 l/m 3,4 km/h N-NW 8,8 C 17,9 C 8,0 km/h
05.10.2009 12:00 18,3 C 56 % 1019,2 hPa 0,0 l/m 0,6 km/h N 9,2 C 18,3 C 3,6 km/h
05.10.2009 13:00 19,3 C 53 % 1018,6 hPa 0,0 l/m 0,7 km/h NO 9,3 C 19,3 C 4,0 km/h
05.10.2009 14:00 19,3 C 52 % 1017,7 hPa 0,0 l/m 2,2 km/h O 9,3 C 19,3 C 6,4 km/h
05.10.2009 15:00 19,6 C 53 % 1017,0 hPa 0,0 l/m 1,9 km/h O 9,6 C 19,6 C 7,2 km/h
05.10.2009 16:00 19,9 C 54 % 1016,2 hPa 0,0 l/m 3,0 km/h O 10,2 C 19,9 C 6,8 km/h
05.10.2009 17:00 19,9 C 55 % 1015,5 hPa 0,0 l/m 2,0 km/h N-NO 10,5 C 19,9 C 4,8 km/h
05.10.2009 18:00 18,8 C 58 % 1015,2 hPa 0,0 l/m 0,5 km/h N 10,3 C 18,8 C 6,0 km/h
05.10.2009 19:00 17,5 C 63 % 1015,1 hPa 0,0 l/m 0,1 km/h N 10,2 C 17,5 C 3,6 km/h
05.10.2009 20:00 16,3 C 69 % 1015,0 hPa 0,0 l/m 0,0 km/h N 10,6 C 16,3 C 0,8 km/h
05.10.2009 21:00 15,5 C 72 % 1015,1 hPa 0,0 l/m 0,0 km/h N 10,5 C 15,5 C 0,8 km/h
05.10.2009 22:00 14,7 C 78 % 1015,2 hPa 0,0 l/m 0,0 km/h N 10,9 C 14,7 C 0,4 km/h
05.10.2009 23:00 14,8 C 79 % 1015,5 hPa 0,0 l/m 0,0 km/h N 11,1 C 14,8 C 0,8 km/h
06.10.2009 00:00 14,4 C 83 % 1015,9 hPa 0,0 l/m 0,0 km/h N 11,5 C 14,4 C 1,6 km/h
06.10.2009 01:00 14,3 C 86 % 1016,4 hPa 0,3 l/m 0,1 km/h N 11,9 C 14,3 C 1,6 km/h
06.10.2009 02:00 13,7 C 90 % 1016,2 hPa 0,0 l/m 0,0 km/h N 12,2 C 13,7 C 0,8 km/h
06.10.2009 03:00 13,8 C 91 % 1016,1 hPa 0,0 l/m 0,0 km/h N 12,3 C 13,8 C 0,4 km/h
06.10.2009 04:00 13,9 C 91 % 1016,5 hPa 0,0 l/m 0,1 km/h N 12,5 C 13,9 C 2,4 km/h
06.10.2009 05:00 13,5 C 91 % 1016,8 hPa 0,0 l/m 0,0 km/h N 12,1 C 13,5 C 0,4 km/h
06.10.2009 06:00 12,3 C 92 % 1017,0 hPa 0,0 l/m 0,0 km/h N 11,0 C 12,3 C 0,0 km/h
06.10.2009 07:00 12,0 C 93 % 1017,0 hPa 0,0 l/m 0,0 km/h N 11,0 C 12,0 C 0,4 km/h
06.10.2009 08:00 13,3 C 93 % 1017,3 hPa 0,0 l/m 0,0 km/h N 12,1 C 13,3 C 0,4 km/h
06.10.2009 09:00 16,0 C 83 % 1017,3 hPa 0,0 l/m 0,8 km/h S-SW 13,1 C 16,0 C 6,0 km/h
06.10.2009 10:00 16,8 C 80 % 1017,5 hPa 0,0 l/m 0,3 km/h N 13,4 C 16,8 C 3,6 km/h
06.10.2009 11:00 18,5 C 74 % 1017,4 hPa 0,0 l/m 0,2 km/h N 13,9 C 18,5 C 2,8 km/h
06.10.2009 12:00 20,1 C 70 % 1017,0 hPa 0,0 l/m 0,6 km/h N 14,5 C 20,1 C 2,8 km/h
06.10.2009 13:00 21,8 C 67 % 1016,3 hPa 0,0 l/m 0,2 km/h N 15,3 C 21,8 C 2,0 km/h
06.10.2009 14:00 23,7 C 60 % 1015,6 hPa 0,0 l/m 0,8 km/h N 15,5 C 23,7 C 4,0 km/h
06.10.2009 15:00 24,9 C 55 % 1015,1 hPa 0,0 l/m 0,7 km/h NO 15,2 C 24,9 C 3,2 km/h
06.10.2009 16:00 25,2 C 54 % 1014,9 hPa 0,0 l/m 0,2 km/h N 15,2 C 25,2 C 2,0 km/h
06.10.2009 17:00 22,8 C 67 % 1015,0 hPa 0,0 l/m 0,0 km/h N 16,2 C 22,8 C 0,0 km/h
06.10.2009 18:00 21,2 C 73 % 1015,3 hPa 0,0 l/m 0,0 km/h N 16,2 C 21,2 C 0,4 km/h
06.10.2009 19:00 20,0 C 79 % 1015,5 hPa 0,0 l/m 0,0 km/h N 16,2 C 20,0 C 0,0 km/h
06.10.2009 20:00 20,0 C 75 % 1015,5 hPa 0,0 l/m 0,0 km/h N 15,5 C 20,0 C 1,2 km/h
06.10.2009 21:00 18,8 C 81 % 1015,7 hPa 0,0 l/m 0,0 km/h N 15,5 C 18,8 C 0,4 km/h
06.10.2009 22:00 18,2 C 82 % 1015,6 hPa 0,0 l/m 0,0 km/h N 15,0 C 18,2 C 1,2 km/h
06.10.2009 23:00 18,6 C 77 % 1015,8 hPa 0,0 l/m 0,1 km/h N 14,4 C 18,6 C 2,4 km/h
07.10.2009 00:00 18,9 C 75 % 1016,1 hPa 0,0 l/m 0,2 km/h N 14,3 C 18,9 C 3,6 km/h
07.10.2009 01:00 17,6 C 82 % 1016,4 hPa 0,0 l/m 0,1 km/h N 14,5 C 17,6 C 1,2 km/h
07.10.2009 02:00 18,5 C 79 % 1016,4 hPa 0,0 l/m 0,1 km/h N 14,7 C 18,5 C 2,8 km/h
07.10.2009 03:00 17,2 C 88 % 1016,5 hPa 0,0 l/m 0,0 km/h N 15,1 C 17,2 C 0,0 km/h
07.10.2009 04:00 16,8 C 91 % 1016,8 hPa 1,2 l/m 0,0 km/h N 15,3 C 16,8 C 0,0 km/h
07.10.2009 05:00 16,5 C 92 % 1017,0 hPa 0,9 l/m 0,0 km/h N 15,2 C 16,5 C 0,8 km/h
07.10.2009 06:00 18,8 C 80 % 1016,9 hPa 0,0 l/m 1,5 km/h SW 15,1 C 18,8 C 7,6 km/h
07.10.2009 07:00 17,1 C 83 % 1017,2 hPa 0,0 l/m 0,2 km/h N 14,2 C 17,1 C 2,8 km/h
07.10.2009 08:00 17,0 C 88 % 1017,8 hPa 0,0 l/m 0,0 km/h N 14,9 C 17,0 C 0,4 km/h
07.10.2009 09:00 21,5 C 69 % 1017,7 hPa 0,0 l/m 1,4 km/h S-SO 15,5 C 21,5 C 8,5 km/h
07.10.2009 10:00 23,7 C 59 % 1017,7 hPa 0,0 l/m 2,6 km/h S 15,3 C 23,7 C 10,5 km/h
07.10.2009 11:00 25,2 C 53 % 1017,5 hPa 0,0 l/m 3,3 km/h S 15,0 C 25,2 C 13,3 km/h
07.10.2009 12:00 26,0 C 52 % 1017,2 hPa 0,0 l/m 1,9 km/h N 15,3 C 26,0 C 6,8 km/h
07.10.2009 13:00 25,9 C 55 % 1016,8 hPa 0,0 l/m 0,6 km/h S-SW 16,0 C 25,9 C 4,8 km/h
07.10.2009 14:00 26,8 C 51 % 1016,3 hPa 0,0 l/m 1,9 km/h S 15,6 C 26,8 C 7,6 km/h
07.10.2009 15:00 26,9 C 50 % 1016,0 hPa 0,0 l/m 2,0 km/h S 15,7 C 26,9 C 7,6 km/h
07.10.2009 16:00 26,1 C 54 % 1015,5 hPa 0,0 l/m 0,5 km/h S-SW 16,1 C 26,1 C 4,0 km/h
07.10.2009 17:00 25,5 C 56 % 1015,2 hPa 0,0 l/m 1,0 km/h N 16,0 C 25,5 C 6,4 km/h
07.10.2009 18:00 22,2 C 69 % 1015,1 hPa 0,0 l/m 0,1 km/h N 16,2 C 22,2 C 3,2 km/h
07.10.2009 19:00 19,3 C 79 % 1015,1 hPa 0,0 l/m 0,0 km/h N 15,5 C 19,3 C 0,0 km/h
07.10.2009 20:00 18,3 C 81 % 1014,8 hPa 0,0 l/m 0,2 km/h N 15,0 C 18,3 C 2,4 km/h
07.10.2009 21:00 17,0 C 86 % 1014,6 hPa 0,0 l/m 0,0 km/h N 14,6 C 17,0 C 0,4 km/h
07.10.2009 22:00 16,2 C 87 % 1014,6 hPa 0,0 l/m 0,0 km/h N 13,9 C 16,2 C 0,4 km/h
07.10.2009 23:00 14,8 C 90 % 1014,1 hPa 0,0 l/m 0,0 km/h N 13,2 C 14,8 C 0,4 km/h
08.10.2009 00:00 13,9 C 92 % 1013,5 hPa 0,0 l/m 0,0 km/h N 12,5 C 13,9 C 0,0 km/h
08.10.2009 01:00 13,4 C 92 % 1013,2 hPa 0,0 l/m 0,0 km/h N 12,1 C 13,4 C 0,4 km/h
08.10.2009 02:00 12,8 C 93 % 1012,7 hPa 0,0 l/m 0,0 km/h N 11,7 C 12,8 C 0,0 km/h
08.10.2009 03:00 12,1 C 93 % 1011,9 hPa 0,0 l/m 0,0 km/h N 11,0 C 12,1 C 0,0 km/h
08.10.2009 04:00 12,0 C 93 % 1011,2 hPa 0,0 l/m 0,0 km/h N 10,9 C 12,0 C 0,4 km/h
08.10.2009 05:00 11,5 C 93 % 1011,1 hPa 0,0 l/m 0,0 km/h N 10,4 C 11,5 C 0,0 km/h
08.10.2009 06:00 12,1 C 94 % 1010,9 hPa 0,0 l/m 0,0 km/h N 11,1 C 12,1 C 0,0 km/h
08.10.2009 07:00 12,9 C 94 % 1011,0 hPa 0,0 l/m 0,0 km/h N 11,9 C 12,9 C 0,0 km/h
08.10.2009 08:00 15,3 C 91 % 1011,5 hPa 0,0 l/m 0,1 km/h N 13,8 C 15,3 C 2,0 km/h
08.10.2009 09:00 17,6 C 82 % 1012,1 hPa 0,0 l/m 0,1 km/h N 14,4 C 17,6 C 2,4 km/h
08.10.2009 10:00 19,6 C 76 % 1012,5 hPa 0,0 l/m 0,1 km/h N 15,3 C 19,6 C 1,6 km/h
08.10.2009 11:00 21,6 C 71 % 1012,7 hPa 0,0 l/m 0,3 km/h SW 16,0 C 21,6 C 2,8 km/h
08.10.2009 12:00 25,4 C 51 % 1012,5 hPa 0,0 l/m 3,7 km/h NW 14,3 C 25,4 C 16,9 km/h
08.10.2009 13:00 26,9 C 45 % 1012,5 hPa 0,0 l/m 6,2 km/h W-NW 13,9 C 26,8 C 22,9 km/h
08.10.2009 14:00 26,0 C 47 % 1012,4 hPa 0,0 l/m 4,9 km/h W-SW 13,7 C 26,0 C 16,5 km/h
08.10.2009 15:00 25,5 C 48 % 1012,3 hPa 0,0 l/m 4,0 km/h NW 13,5 C 25,5 C 16,5 km/h
08.10.2009 16:00 24,4 C 51 % 1012,3 hPa 0,0 l/m 4,2 km/h SW 13,7 C 24,4 C 17,3 km/h
08.10.2009 17:00 23,9 C 53 % 1012,6 hPa 0,0 l/m 4,5 km/h S-SW 13,6 C 23,9 C 19,3 km/h
08.10.2009 18:00 23,2 C 55 % 1012,9 hPa 0,0 l/m 3,6 km/h NW 13,7 C 23,2 C 14,5 km/h
08.10.2009 19:00 22,8 C 58 % 1013,6 hPa 0,0 l/m 2,1 km/h O-NO 14,0 C 22,8 C 10,1 km/h
08.10.2009 20:00 22,5 C 59 % 1013,7 hPa 0,0 l/m 1,7 km/h O-SO 14,0 C 22,5 C 10,1 km/h
08.10.2009 21:00 21,3 C 64 % 1014,0 hPa 0,0 l/m 0,3 km/h N 14,2 C 21,3 C 4,0 km/h
08.10.2009 22:00 20,9 C 66 % 1014,2 hPa 0,0 l/m 0,2 km/h N 14,3 C 20,9 C 2,0 km/h
08.10.2009 23:00 20,9 C 66 % 1014,2 hPa 0,0 l/m 0,6 km/h NW 14,2 C 20,9 C 4,0 km/h
09.10.2009 00:00 21,0 C 66 % 1014,3 hPa 0,0 l/m 2,4 km/h NW 14,3 C 21,0 C 6,0 km/h
09.10.2009 01:00 19,6 C 75 % 1015,6 hPa 1,8 l/m 4,0 km/h N-NW 15,0 C 19,6 C 10,9 km/h
09.10.2009 02:00 17,4 C 89 % 1016,1 hPa 3,3 l/m 2,2 km/h N-NW 15,6 C 17,4 C 6,8 km/h
09.10.2009 03:00 17,0 C 91 % 1016,0 hPa 0,3 l/m 0,4 km/h N-NW 15,5 C 17,0 C 2,8 km/h
09.10.2009 04:00 16,8 C 92 % 1016,2 hPa 0,3 l/m 0,5 km/h N-NW 15,4 C 16,8 C 2,8 km/h
09.10.2009 05:00 16,4 C 92 % 1016,7 hPa 0,0 l/m 0,1 km/h N 15,0 C 16,4 C 1,6 km/h
09.10.2009 06:00 15,8 C 92 % 1017,2 hPa 0,9 l/m 0,9 km/h N-NW 14,4 C 15,8 C 3,2 km/h
09.10.2009 07:00 14,8 C 90 % 1017,7 hPa 0,3 l/m 0,9 km/h N 13,2 C 14,8 C 3,6 km/h
09.10.2009 08:00 14,4 C 88 % 1018,6 hPa 0,0 l/m 2,2 km/h N-NW 12,4 C 14,4 C 6,8 km/h
09.10.2009 09:00 13,6 C 88 % 1019,5 hPa 0,0 l/m 2,9 km/h N-NW 11,6 C 13,6 C 8,0 km/h
09.10.2009 10:00 12,7 C 87 % 1020,2 hPa 0,0 l/m 3,0 km/h N-NW 10,7 C 12,7 C 8,0 km/h
09.10.2009 11:00 12,2 C 89 % 1020,6 hPa 0,6 l/m 3,1 km/h N-NW 10,4 C 12,2 C 8,9 km/h
09.10.2009 12:00 11,8 C 90 % 1021,0 hPa 0,0 l/m 2,6 km/h NW 10,2 C 11,8 C 6,8 km/h
09.10.2009 13:00 12,2 C 89 % 1021,0 hPa 0,3 l/m 2,1 km/h NW 10,4 C 12,2 C 6,8 km/h
09.10.2009 14:00 12,4 C 87 % 1020,9 hPa 0,0 l/m 1,9 km/h N-NW 10,3 C 12,4 C 6,0 km/h
09.10.2009 15:00 12,3 C 89 % 1020,7 hPa 0,9 l/m 1,3 km/h N-NW 10,5 C 12,3 C 5,2 km/h
09.10.2009 16:00 12,3 C 90 % 1020,4 hPa 0,0 l/m 0,7 km/h N-NW 10,6 C 12,3 C 4,0 km/h
09.10.2009 17:00 12,4 C 88 % 1020,1 hPa 0,0 l/m 0,2 km/h N 10,4 C 12,4 C 2,8 km/h
09.10.2009 18:00 12,5 C 86 % 1020,1 hPa 0,0 l/m 0,1 km/h N 10,2 C 12,5 C 2,0 km/h
09.10.2009 19:00 12,6 C 85 % 1020,0 hPa 0,0 l/m 0,0 km/h N 10,1 C 12,6 C 0,0 km/h
09.10.2009 20:00 12,5 C 85 % 1019,9 hPa 0,0 l/m 0,0 km/h N 10,0 C 12,5 C 0,0 km/h
09.10.2009 21:00 12,3 C 85 % 1019,9 hPa 0,0 l/m 0,0 km/h N 9,9 C 12,3 C 0,0 km/h
09.10.2009 22:00 12,2 C 82 % 1019,6 hPa 0,0 l/m 0,0 km/h N 9,2 C 12,2 C 0,0 km/h
09.10.2009 23:00 11,7 C 78 % 1019,3 hPa 0,0 l/m 0,0 km/h N 8,0 C 11,7 C 0,0 km/h
10.10.2009 00:00 11,6 C 83 % 1018,9 hPa 0,0 l/m 0,0 km/h N 8,9 C 11,6 C 0,0 km/h
10.10.2009 01:00 11,5 C 80 % 1018,6 hPa 0,0 l/m 0,0 km/h N 8,1 C 11,5 C 0,0 km/h
10.10.2009 02:00 11,3 C 80 % 1018,0 hPa 0,0 l/m 0,0 km/h N 8,0 C 11,3 C 0,0 km/h
10.10.2009 03:00 11,0 C 82 % 1017,4 hPa 0,0 l/m 0,0 km/h N 8,1 C 11,0 C 0,0 km/h
10.10.2009 04:00 10,8 C 83 % 1016,8 hPa 0,0 l/m 0,0 km/h N 8,0 C 10,8 C 0,0 km/h
10.10.2009 05:00 10,8 C 84 % 1016,3 hPa 0,0 l/m 0,0 km/h N 8,2 C 10,8 C 0,0 km/h
10.10.2009 06:00 10,6 C 87 % 1015,5 hPa 0,0 l/m 0,0 km/h N 8,5 C 10,6 C 0,0 km/h
10.10.2009 07:00 10,7 C 89 % 1015,3 hPa 0,0 l/m 0,0 km/h N 9,0 C 10,7 C 0,0 km/h
10.10.2009 08:00 11,3 C 88 % 1015,3 hPa 0,0 l/m 0,0 km/h N 9,3 C 11,3 C 0,0 km/h
10.10.2009 09:00 11,6 C 86 % 1015,2 hPa 0,0 l/m 0,0 km/h N 9,3 C 11,6 C 0,0 km/h
10.10.2009 10:00 11,9 C 85 % 1014,8 hPa 0,0 l/m 0,0 km/h N 9,4 C 11,9 C 1,2 km/h
10.10.2009 11:00 12,4 C 83 % 1014,4 hPa 0,0 l/m 0,0 km/h N 9,6 C 12,4 C 0,4 km/h
10.10.2009 12:00 12,8 C 85 % 1014,3 hPa 0,0 l/m 0,0 km/h N 10,3 C 12,8 C 0,8 km/h
10.10.2009 13:00 12,9 C 86 % 1014,0 hPa 0,0 l/m 0,0 km/h N 10,7 C 12,9 C 0,8 km/h
10.10.2009 14:00 13,5 C 85 % 1013,4 hPa 0,0 l/m 0,1 km/h N 11,0 C 13,5 C 1,2 km/h
10.10.2009 15:00 14,1 C 85 % 1012,9 hPa 0,0 l/m 0,2 km/h N 11,5 C 14,1 C 2,8 km/h
10.10.2009 16:00 14,2 C 85 % 1012,8 hPa 0,0 l/m 0,1 km/h N 11,8 C 14,2 C 2,8 km/h
10.10.2009 17:00 14,1 C 86 % 1012,9 hPa 0,0 l/m 0,3 km/h N 11,7 C 14,1 C 4,4 km/h
10.10.2009 18:00 13,7 C 88 % 1013,1 hPa 0,0 l/m 0,0 km/h N 11,7 C 13,7 C 1,6 km/h
10.10.2009 19:00 13,7 C 90 % 1013,4 hPa 0,0 l/m 0,0 km/h N 12,1 C 13,7 C 0,4 km/h
10.10.2009 20:00 13,6 C 91 % 1013,3 hPa 0,0 l/m 0,0 km/h N 12,1 C 13,6 C 0,0 km/h
10.10.2009 21:00 13,3 C 91 % 1013,3 hPa 0,0 l/m 0,0 km/h N 11,9 C 13,3 C 0,0 km/h
10.10.2009 22:00 13,2 C 91 % 1013,3 hPa 0,0 l/m 0,0 km/h N 11,8 C 13,2 C 1,2 km/h
10.10.2009 23:00 12,9 C 92 % 1013,2 hPa 0,0 l/m 0,0 km/h N 11,6 C 12,9 C 1,2 km/h
11.10.2009 00:00 14,6 C 87 % 1013,0 hPa 0,0 l/m 2,0 km/h SO 12,4 C 14,6 C 10,1 km/h
11.10.2009 01:00 15,0 C 81 % 1012,9 hPa 0,3 l/m 3,0 km/h W-SW 11,8 C 15,0 C 13,3 km/h
11.10.2009 02:00 14,7 C 82 % 1012,5 hPa 0,0 l/m 2,5 km/h S 11,7 C 14,7 C 14,9 km/h
11.10.2009 03:00 14,6 C 82 % 1012,4 hPa 0,0 l/m 4,1 km/h W-SW 11,7 C 14,6 C 17,7 km/h
11.10.2009 04:00 14,3 C 85 % 1012,3 hPa 0,3 l/m 3,5 km/h NW 11,7 C 14,3 C 13,7 km/h
11.10.2009 05:00 14,2 C 82 % 1012,0 hPa 0,0 l/m 2,9 km/h SO 11,1 C 14,2 C 11,3 km/h
11.10.2009 06:00 14,3 C 79 % 1012,0 hPa 0,0 l/m 5,3 km/h SW 10,8 C 14,3 C 22,9 km/h
11.10.2009 07:00 14,1 C 78 % 1012,2 hPa 0,0 l/m 4,7 km/h N-NW 10,3 C 14,1 C 20,1 km/h
11.10.2009 08:00 14,0 C 78 % 1012,9 hPa 0,0 l/m 4,3 km/h W 10,1 C 14,0 C 19,7 km/h
11.10.2009 09:00 14,7 C 75 % 1013,3 hPa 0,0 l/m 3,9 km/h NW 10,2 C 14,7 C 17,3 km/h
11.10.2009 10:00 15,6 C 69 % 1013,5 hPa 0,0 l/m 5,3 km/h S 9,9 C 15,7 C 18,5 km/h
11.10.2009 11:00 15,6 C 67 % 1013,5 hPa 0,0 l/m 4,8 km/h N-NO 9,5 C 15,6 C 18,5 km/h
11.10.2009 12:00 15,7 C 65 % 1013,5 hPa 0,0 l/m 5,6 km/h W-SW 9,1 C 15,5 C 23,7 km/h
11.10.2009 13:00 16,0 C 61 % 1013,3 hPa 0,0 l/m 8,0 km/h W 8,5 C 15,1 C 27,8 km/h
11.10.2009 14:00 15,9 C 62 % 1013,1 hPa 0,0 l/m 6,0 km/h W-SW 8,6 C 15,8 C 24,2 km/h
11.10.2009 15:00 15,9 C 60 % 1012,8 hPa 0,0 l/m 5,7 km/h W-SW 8,1 C 15,8 C 20,9 km/h
11.10.2009 16:00 15,4 C 58 % 1012,8 hPa 0,0 l/m 4,6 km/h S-SO 7,2 C 15,4 C 21,3 km/h
11.10.2009 17:00 14,7 C 61 % 1012,6 hPa 0,0 l/m 4,1 km/h W 7,3 C 14,7 C 18,9 km/h
11.10.2009 18:00 14,2 C 65 % 1012,6 hPa 0,0 l/m 2,9 km/h S-SO 7,7 C 14,2 C 12,1 km/h
11.10.2009 19:00 13,5 C 69 % 1012,7 hPa 0,0 l/m 0,4 km/h N 7,8 C 13,5 C 3,6 km/h
11.10.2009 20:00 12,1 C 75 % 1012,5 hPa 0,0 l/m 0,1 km/h N 7,8 C 12,1 C 2,8 km/h
11.10.2009 21:00 11,1 C 79 % 1012,0 hPa 0,0 l/m 0,0 km/h N 7,5 C 11,1 C 1,2 km/h
11.10.2009 22:00 11,0 C 79 % 1011,5 hPa 0,0 l/m 0,0 km/h N 7,5 C 11,0 C 1,6 km/h
11.10.2009 23:00 11,8 C 74 % 1010,8 hPa 0,0 l/m 0,1 km/h N 7,3 C 11,8 C 2,0 km/h
Min-Datum _ 05.10.09 08.10.09 11.10.09 - 05.10.09 - 11.10.09 05.10.09 05.10.09
_ Min-Zeit 01:15 13:15 23:45 - 00:00 - 16:30 01:15 00:00
Minimum _ 8,7 C 44 % 1010,5 hPa - 0,0 km/h - 6,6 C 8,8 C 0,0 km/h
Max-Datum _ 07.10.09 08.10.09 09.10.09 09.10.09 11.10.09 - 06.10.09 07.10.09 11.10.09
_ Max-Zeit 15:30 06:00 12:30 02:00 13:00 - 19:15 15:30 12:30
Maximum _ 27,3 C 94 % 1021,2 hPa 3,3 l/m 8,3 km/h
W
- 16,5 C 27,2 C 30,6 km/h
SW
Durchschnitt _ 16,3 C 76 % 1015,5 hPa #11,7 l/m 1,2 km/h N-NW 11,8 C 16,2 C 5,3 km/h